Manitowoc County Information

FAA: MTW - ICAO: KMTW

Manitowoc County (Airport) Location

State Wisconsin
County Manitowoc
City Manitowoc
Manitowoc County (Airport) is 2 miles northwest of Manitowoc, WI.
Latitude 44-07-43.6000N
Longitude 087-40-50.1000W
Elevation 650ft

Manitowoc County METARs

METAR KMTW 251556Z AUTO 28008KT 10SM CLR M14/M21 A3023 RMK AO2 SLP252 T11441206 FZRANO
Altimeter 30.23"
Temperature -14.4°C (6.1°F)
Wind 280° at 8KT
Clouds Skies are clear.
Visibility 10.0mi
Time observed: 2022-01-25T15:56:00Z

Manitowoc County (Airport) Details

Status Operational
Activation October 1937
Ownership Public
Usage Public
Chart GREEN BAY
ATC on-site No
Beacon schedule sunset-sunrise
Beacon color clear green

Manitowoc County (Airport) Contacts

Owner COUNTY OF MANITOWOC
Owner address 1010 S 8TH, MANITOWOC, WI 54220
Owner phone 920-683-4594
Manager AL LARSON
Manager address 900 COLLEGE AVE WEST, LADYSMITH, WI 54848
Manager phone 715-532-5561

Manitowoc County Radio Frequencies

Manitowoc County (Airport) Radio Frequencies

UNICOM 122.8
Common traffic advisory frequency (CTAF) 122.8